Terminal Aerodrome Forecast
Issued by NWS

Home | Current Version | Previous Version | Text Only | Print | Product List | Glossary On
Versions: 1 2 3 4 5 6 7 8 9 10 11 12 13
000
FTUS44 KEPZ 020520
TAFTCS
TAF
KTCS 020520Z 0206/0306 33007KT P6SM SCT120
     FM021600 17008KT P6SM FEW090
     FM021900 29006KT P6SM SCT090 SCT120=

USA.gov is the U.S. government's official web portal to all federal, state and local government web resources and services.